Time;durP1;ratioP1;P1;durP2;ratioP2;P2;SDS_P1;SDS_P2;PMS_P1;PMS_P2;Temp;Humidity;BMP_temperature;BMP_pressure;BME280_temperature;BME280_humidity;BME280_pressure;Samples;Min_cycle;Max_cycle;Signal;HPM_P1;HPM_P2
2023/01/08 03:00:59;;;;;;;17.57;16.17;;;3.90;99.90;;;;;;5736100;23;20291;-79
2023/01/08 03:03:28;;;;;;;17.87;16.37;;;3.90;99.90;;;;;;4908097;29;20200;-78
2023/01/08 03:05:58;;;;;;;17.43;15.93;;;3.90;99.90;;;;;;4907677;29;20243;-79
2023/01/08 03:08:25;;;;;;;18.53;16.87;;;3.90;99.90;;;;;;4901773;29;20204;-78
2023/01/08 03:10:56;;;;;;;18.27;16.77;;;3.90;99.90;;;;;;4904289;29;20228;-78
2023/01/08 03:13:26;;;;;;;18.97;17.03;;;3.90;99.90;;;;;;4908390;29;20216;-79
2023/01/08 03:15:58;;;;;;;18.00;16.37;;;3.90;99.90;;;;;;4909101;29;20212;-79
2023/01/08 03:18:32;;;;;;;19.37;17.37;;;3.90;99.90;;;;;;4909618;29;20204;-78
2023/01/08 03:21:01;;;;;;;18.47;16.70;;;3.90;99.90;;;;;;4907833;29;20217;-78
2023/01/08 03:23:32;;;;;;;19.10;17.30;;;3.90;99.90;;;;;;4904478;29;20200;-79
2023/01/08 03:26:00;;;;;;;17.50;15.90;;;3.90;99.90;;;;;;4911374;29;20200;-78
2023/01/08 03:28:32;;;;;;;17.60;16.10;;;3.90;99.90;;;;;;4897989;29;20207;-79
2023/01/08 03:31:02;;;;;;;18.50;16.33;;;3.90;99.90;;;;;;4906248;29;20233;-79
2023/01/08 03:33:30;;;;;;;17.20;15.80;;;3.90;99.90;;;;;;4908786;29;20249;-79
2023/01/08 03:36:01;;;;;;;17.33;15.83;;;3.80;99.90;;;;;;4907205;29;20749;-78
2023/01/08 03:38:32;;;;;;;18.40;16.80;;;3.80;99.90;;;;;;4908818;29;20265;-79
2023/01/08 03:41:03;;;;;;;16.10;14.90;;;3.80;99.90;;;;;;4906379;29;20225;-79
2023/01/08 03:43:30;;;;;;;17.10;15.40;;;3.80;99.90;;;;;;4909581;29;20626;-79
2023/01/08 03:46:02;;;;;;;16.53;15.10;;;3.80;99.90;;;;;;4910372;29;20283;-79
2023/01/08 03:48:31;;;;;;;17.53;16.13;;;3.80;99.90;;;;;;4896620;29;20606;-79
2023/01/08 03:50:57;;;;;;;17.47;16.03;;;3.80;99.90;;;;;;4903273;29;20301;-78
2023/01/08 03:53:24;;;;;;;16.50;15.10;;;3.80;99.90;;;;;;4907027;29;20203;-78
2023/01/08 03:55:51;;;;;;;16.90;15.50;;;3.80;99.90;;;;;;4906869;29;20203;-78
2023/01/08 03:58:18;;;;;;;16.73;15.33;;;3.90;99.90;;;;;;4909488;29;20239;-79
2023/01/08 04:00:45;;;;;;;16.37;15.07;;;3.90;99.90;;;;;;4908576;29;20272;-78
2023/01/08 04:03:13;;;;;;;16.23;14.97;;;3.90;99.90;;;;;;4909377;29;20208;-78
2023/01/08 04:05:39;;;;;;;16.50;15.20;;;3.90;99.90;;;;;;4905839;29;20294;-78
2023/01/08 04:08:06;;;;;;;17.73;15.97;;;3.90;99.90;;;;;;4904066;29;20201;-78
2023/01/08 04:10:33;;;;;;;16.97;15.60;;;4.00;99.90;;;;;;4910345;29;20212;-79
2023/01/08 04:13:00;;;;;;;15.87;14.57;;;4.00;99.90;;;;;;4902027;29;20212;-81
2023/01/08 04:15:27;;;;;;;18.07;16.67;;;4.00;99.90;;;;;;4897847;29;20240;-79
2023/01/08 04:17:54;;;;;;;17.97;16.40;;;3.90;99.90;;;;;;4901073;29;20220;-78
2023/01/08 04:20:22;;;;;;;17.03;15.70;;;3.90;99.90;;;;;;4890877;29;20261;-78
2023/01/08 04:22:49;;;;;;;17.27;15.83;;;3.80;99.90;;;;;;4898033;29;20584;-78
2023/01/08 04:25:16;;;;;;;17.43;16.03;;;3.80;99.90;;;;;;4898007;29;20284;-79
2023/01/08 04:27:42;;;;;;;17.73;16.27;;;3.80;99.90;;;;;;4898406;29;20226;-79
2023/01/08 04:30:10;;;;;;;17.47;15.97;;;3.90;99.90;;;;;;4898689;29;20200;-78
2023/01/08 04:32:37;;;;;;;17.47;16.07;;;3.90;99.90;;;;;;4899289;29;20225;-78
2023/01/08 04:35:05;;;;;;;17.37;16.00;;;4.00;99.90;;;;;;4901937;29;20192;-78
2023/01/08 04:37:33;;;;;;;16.93;15.53;;;4.00;99.90;;;;;;4899553;29;20264;-79
2023/01/08 04:39:59;;;;;;;18.10;16.60;;;4.00;99.90;;;;;;4897247;29;20204;-79
2023/01/08 04:42:26;;;;;;;17.50;16.00;;;4.10;99.90;;;;;;4898065;29;20224;-78
2023/01/08 04:44:53;;;;;;;17.20;15.80;;;4.10;99.90;;;;;;4899266;29;20257;-78
2023/01/08 04:47:20;;;;;;;16.80;15.40;;;4.10;99.90;;;;;;4899650;29;20269;-79
2023/01/08 04:49:47;;;;;;;18.07;16.50;;;4.20;99.90;;;;;;4895984;29;20201;-78
2023/01/08 04:52:13;;;;;;;18.17;16.80;;;4.30;99.90;;;;;;4899019;29;20225;-78
2023/01/08 04:54:41;;;;;;;17.60;16.20;;;4.30;99.90;;;;;;4897072;29;20197;-78
2023/01/08 04:57:08;;;;;;;18.57;17.00;;;4.30;99.90;;;;;;4899150;29;20204;-78
2023/01/08 04:59:35;;;;;;;17.40;15.90;;;4.40;99.90;;;;;;4895600;29;20200;-78
2023/01/08 05:02:02;;;;;;;17.73;16.23;;;4.40;99.90;;;;;;4911781;29;20233;-78
2023/01/08 05:04:29;;;;;;;17.50;16.10;;;4.50;99.90;;;;;;4896517;29;20256;-78
2023/01/08 05:06:55;;;;;;;17.37;15.87;;;4.50;99.90;;;;;;4904641;29;20204;-78
2023/01/08 05:09:22;;;;;;;17.43;16.03;;;4.60;99.90;;;;;;4900691;29;20216;-79
2023/01/08 05:11:50;;;;;;;16.93;15.53;;;4.70;99.90;;;;;;4909424;29;20310;-79
2023/01/08 05:14:17;;;;;;;16.93;15.60;;;4.70;99.90;;;;;;4904627;29;20228;-78
2023/01/08 05:16:44;;;;;;;16.80;15.40;;;4.80;99.90;;;;;;4906348;29;20251;-79
2023/01/08 05:19:11;;;;;;;16.30;15.10;;;4.80;99.90;;;;;;4906158;29;20208;-78
2023/01/08 05:21:37;;;;;;;15.93;14.73;;;4.80;99.90;;;;;;4906334;29;20248;-79
2023/01/08 05:24:05;;;;;;;16.07;14.87;;;4.80;99.90;;;;;;4910629;29;20215;-78
2023/01/08 05:26:31;;;;;;;16.27;14.97;;;4.90;99.90;;;;;;4907157;29;20645;-78
2023/01/08 05:29:00;;;;;;;16.07;14.87;;;4.90;99.90;;;;;;4901404;29;20208;-80
2023/01/08 05:31:27;;;;;;;15.70;14.43;;;4.90;99.90;;;;;;4902347;29;20221;-77
2023/01/08 05:33:53;;;;;;;15.90;14.73;;;5.00;99.90;;;;;;4907953;29;20296;-77
2023/01/08 05:36:20;;;;;;;15.97;14.77;;;5.00;99.90;;;;;;4902639;29;20277;-79
2023/01/08 05:38:47;;;;;;;16.53;15.13;;;5.10;99.90;;;;;;4911303;29;20194;-78
2023/01/08 05:41:14;;;;;;;15.20;14.13;;;5.10;99.90;;;;;;4909538;29;20292;-78
2023/01/08 05:43:40;;;;;;;14.93;13.93;;;5.10;99.90;;;;;;4911040;29;20564;-78
2023/01/08 05:46:09;;;;;;;15.73;14.43;;;5.20;99.90;;;;;;4910452;29;20205;-79
2023/01/08 05:48:36;;;;;;;14.67;13.67;;;5.30;99.90;;;;;;4903879;29;20208;-79
2023/01/08 05:51:03;;;;;;;14.73;13.70;;;5.30;99.90;;;;;;4902422;29;20228;-79
2023/01/08 05:53:31;;;;;;;15.63;14.47;;;5.30;99.90;;;;;;4908683;29;20200;-79
2023/01/08 05:56:00;;;;;;;14.27;13.27;;;5.40;99.90;;;;;;4906189;29;20234;-79
2023/01/08 05:58:27;;;;;;;14.60;13.50;;;5.40;99.90;;;;;;4910114;29;20566;-78
2023/01/08 06:00:54;;;;;;;14.30;13.30;;;5.40;99.90;;;;;;4908331;29;20291;-78
2023/01/08 06:03:22;;;;;;;13.80;12.80;;;5.50;99.90;;;;;;4909041;29;20259;-79
2023/01/08 06:05:49;;;;;;;14.40;13.50;;;5.50;99.90;;;;;;4908271;29;20196;-79
2023/01/08 06:08:16;;;;;;;14.10;13.10;;;5.50;99.90;;;;;;4908092;29;20329;-79
2023/01/08 06:10:43;;;;;;;14.10;13.10;;;5.50;99.90;;;;;;4908358;29;20744;-79
2023/01/08 06:13:10;;;;;;;14.20;13.20;;;5.50;99.90;;;;;;4908279;29;20213;-80
2023/01/08 06:15:38;;;;;;;13.73;12.73;;;5.50;99.90;;;;;;4908395;29;20209;-80
2023/01/08 06:18:05;;;;;;;13.80;12.83;;;5.50;99.90;;;;;;4909790;29;20287;-79
2023/01/08 06:20:34;;;;;;;14.40;13.30;;;5.40;99.90;;;;;;4904753;29;20209;-78
2023/01/08 06:23:00;;;;;;;15.40;14.10;;;5.40;99.90;;;;;;4902141;29;20451;-80
2023/01/08 06:25:28;;;;;;;15.00;13.90;;;5.40;99.90;;;;;;4908653;29;20202;-80
2023/01/08 06:27:55;;;;;;;14.10;13.10;;;5.40;99.90;;;;;;4906579;29;20260;-78
2023/01/08 06:30:22;;;;;;;14.70;13.70;;;5.40;99.90;;;;;;4907899;29;20214;-80
2023/01/08 06:32:48;;;;;;;14.57;13.40;;;5.40;99.90;;;;;;4906066;29;20240;-80
2023/01/08 06:35:15;;;;;;;14.43;13.37;;;5.40;99.90;;;;;;4908716;29;20201;-80
2023/01/08 06:37:44;;;;;;;13.77;12.87;;;5.50;99.90;;;;;;4911578;29;20674;-80
2023/01/08 06:40:11;;;;;;;14.60;13.60;;;5.50;99.90;;;;;;4908373;29;20208;-80
2023/01/08 06:42:38;;;;;;;14.83;13.63;;;5.60;99.90;;;;;;4893519;29;20221;-78
2023/01/08 06:45:06;;;;;;;14.60;13.60;;;5.60;99.90;;;;;;4903076;29;20208;-81
2023/01/08 06:47:33;;;;;;;14.20;13.20;;;5.70;99.90;;;;;;4908963;29;20682;-81
2023/01/08 06:50:00;;;;;;;15.07;13.97;;;5.80;99.90;;;;;;4905667;29;20196;-82
2023/01/08 06:52:27;;;;;;;15.10;14.00;;;5.80;99.90;;;;;;4911877;29;20221;-83
2023/01/08 06:54:55;;;;;;;13.53;12.63;;;5.90;99.90;;;;;;4913882;29;20201;-81
2023/01/08 06:57:22;;;;;;;13.67;12.77;;;6.00;99.90;;;;;;4915010;29;20216;-82
2023/01/08 06:59:49;;;;;;;14.45;13.55;;;6.00;99.90;;;;;;4913793;29;20552;-77
2023/01/08 07:02:17;;;;;;;13.67;12.77;;;6.10;99.90;;;;;;4911018;29;20731;-81
2023/01/08 07:04:44;;;;;;;13.53;12.63;;;6.10;99.90;;;;;;4917019;29;20630;-83
2023/01/08 07:07:13;;;;;;;15.68;14.68;;;6.20;99.90;;;;;;4912977;29;20444;-84
2023/01/08 07:09:39;;;;;;;13.83;12.93;;;6.20;99.90;;;;;;4915695;29;20213;-82
2023/01/08 07:12:12;;;;;;;15.00;14.00;;;6.20;99.90;;;;;;4913237;29;20231;-83
2023/01/08 07:14:39;;;;;;;13.80;12.90;;;6.30;99.90;;;;;;4917082;29;20240;-81
2023/01/08 07:17:06;;;;;;;13.90;13.00;;;6.30;99.90;;;;;;4913301;29;20210;-82
2023/01/08 07:19:33;;;;;;;13.90;13.00;;;6.30;99.90;;;;;;4912077;29;20292;-81
2023/01/08 07:22:00;;;;;;;13.87;12.97;;;6.30;99.90;;;;;;4910807;29;20314;-81
2023/01/08 07:24:27;;;;;;;13.97;13.00;;;6.40;99.90;;;;;;4912245;29;20297;-78
2023/01/08 07:26:53;;;;;;;13.57;12.67;;;6.40;99.90;;;;;;4912430;29;20257;-78
2023/01/08 07:29:22;;;;;;;13.03;12.23;;;6.50;99.90;;;;;;4908925;29;20643;-76
2023/01/08 07:31:48;;;;;;;13.43;12.60;;;6.60;99.90;;;;;;4908625;29;20232;-78
2023/01/08 07:34:15;;;;;;;12.90;12.13;;;6.60;99.90;;;;;;4900371;29;20204;-77
2023/01/08 07:36:42;;;;;;;13.50;12.70;;;6.60;99.90;;;;;;4907165;29;20688;-77
2023/01/08 07:39:09;;;;;;;12.90;12.10;;;6.60;99.90;;;;;;4910177;29;20212;-80
2023/01/08 07:41:35;;;;;;;12.83;11.93;;;6.70;99.90;;;;;;4908391;29;20650;-80
2023/01/08 07:44:02;;;;;;;12.10;11.30;;;6.70;99.90;;;;;;4908759;29;20214;-80
2023/01/08 07:46:31;;;;;;;12.37;11.67;;;6.80;99.90;;;;;;4910496;29;20210;-83
2023/01/08 07:48:58;;;;;;;12.13;11.47;;;6.80;99.90;;;;;;4907249;29;20278;-79
2023/01/08 07:51:25;;;;;;;14.30;13.50;;;6.90;99.90;;;;;;4911342;29;20218;-78
2023/01/08 07:53:51;;;;;;;15.07;14.17;;;6.90;99.90;;;;;;4911537;29;20675;-78
2023/01/08 07:56:18;;;;;;;14.63;13.73;;;6.90;99.90;;;;;;4910058;29;20228;-78
2023/01/08 07:58:45;;;;;;;14.50;13.50;;;7.00;99.90;;;;;;4907851;29;20204;-79
2023/01/08 08:01:12;;;;;;;14.30;13.40;;;7.00;99.90;;;;;;4908686;29;20234;-80
2023/01/08 08:03:41;;;;;;;13.40;12.60;;;7.10;99.90;;;;;;4907095;29;20203;-79
2023/01/08 08:06:08;;;;;;;13.40;12.60;;;7.10;99.90;;;;;;4904631;29;20672;-80
2023/01/08 08:08:35;;;;;;;13.23;12.43;;;7.10;99.90;;;;;;4911962;29;20740;-79
2023/01/08 08:11:02;;;;;;;12.60;11.90;;;7.10;99.90;;;;;;4906588;29;20235;-81
2023/01/08 08:13:29;;;;;;;13.10;12.30;;;7.10;99.90;;;;;;4926141;29;20695;-78
2023/01/08 08:16:01;;;;;;;12.23;11.53;;;7.10;99.90;;;;;;4905758;29;20204;-81
2023/01/08 08:18:28;;;;;;;12.33;11.63;;;7.10;99.90;;;;;;4894699;29;20250;-79
2023/01/08 08:20:57;;;;;;;12.40;11.70;;;7.20;99.90;;;;;;4900825;29;20767;-78
2023/01/08 08:23:24;;;;;;;12.93;12.20;;;7.20;99.90;;;;;;4898047;29;20244;-79
2023/01/08 08:25:51;;;;;;;12.73;11.93;;;7.20;99.90;;;;;;4907168;29;20205;-78
2023/01/08 08:28:18;;;;;;;12.20;11.53;;;7.20;99.90;;;;;;4908557;29;20204;-79
2023/01/08 08:30:45;;;;;;;13.32;12.52;;;7.20;99.90;;;;;;4904891;29;20459;-78
2023/01/08 08:33:12;;;;;;;4.27;3.90;;;7.20;99.90;;;;;;4910791;29;20258;-79
2023/01/08 08:35:39;;;;;;;5.13;4.73;;;7.20;99.90;;;;;;4911822;29;20204;-78
2023/01/08 08:38:07;;;;;;;9.00;8.40;;;7.20;99.90;;;;;;4911039;29;20270;-78
2023/01/08 08:40:34;;;;;;;6.90;6.40;;;7.20;99.90;;;;;;4905501;29;20204;-78
2023/01/08 08:43:04;;;;;;;4.90;4.50;;;7.20;99.90;;;;;;4911420;29;20262;-78
2023/01/08 08:45:31;;;;;;;11.33;10.53;;;7.20;99.90;;;;;;4905146;29;20657;-78
2023/01/08 08:47:57;;;;;;;6.17;5.67;;;7.30;99.90;;;;;;4912068;29;20218;-79
2023/01/08 08:50:24;;;;;;;4.03;3.73;;;7.30;99.90;;;;;;4911880;29;20260;-78
2023/01/08 08:52:51;;;;;;;5.37;4.90;;;7.40;99.90;;;;;;4905951;29;20228;-78
2023/01/08 08:55:19;;;;;;;5.63;5.17;;;7.40;99.90;;;;;;4913983;29;20620;-79
2023/01/08 08:57:47;;;;;;;4.47;4.07;;;7.50;99.90;;;;;;4907056;29;20252;-80
2023/01/08 09:00:15;;;;;;;11.00;10.25;;;7.50;99.90;;;;;;4904672;29;20856;-80
2023/01/08 09:02:42;;;;;;;3.25;3.00;;;7.60;99.90;;;;;;4901704;29;20459;-81
2023/01/08 09:05:10;;;;;;;3.20;3.00;;;7.70;99.90;;;;;;4898588;29;20209;-81
2023/01/08 09:07:39;;;;;;;3.60;3.40;;;7.70;99.90;;;;;;4909734;29;20295;-80
2023/01/08 09:10:08;;;;;;;3.10;2.90;;;7.80;99.90;;;;;;4909576;29;20455;-80
2023/01/08 09:12:38;;;;;;;3.70;3.47;;;7.80;99.90;;;;;;4911328;29;20227;-80
2023/01/08 09:15:06;;;;;;;3.43;3.23;;;7.90;99.90;;;;;;4916119;29;20275;-81
2023/01/08 09:17:35;;;;;;;4.00;3.70;;;7.90;99.90;;;;;;4906961;29;20644;-80
2023/01/08 09:20:02;;;;;;;3.23;3.03;;;7.90;99.90;;;;;;4909004;29;20220;-81
2023/01/08 09:22:29;;;;;;;3.30;3.00;;;8.00;99.90;;;;;;4907592;29;20338;-81
2023/01/08 09:24:56;;;;;;;3.70;3.40;;;8.00;99.90;;;;;;4921927;29;20213;-81
2023/01/08 09:27:23;;;;;;;3.57;3.30;;;8.00;99.90;;;;;;4912961;29;20204;-80
2023/01/08 09:29:51;;;;;;;3.80;3.50;;;8.10;99.90;;;;;;4910407;29;20204;-80
2023/01/08 09:32:18;;;;;;;3.93;3.63;;;8.10;99.90;;;;;;4907152;29;20269;-80
2023/01/08 09:34:45;;;;;;;5.20;4.80;;;8.20;99.90;;;;;;4909412;29;20202;-80
2023/01/08 09:37:12;;;;;;;5.40;5.00;;;8.20;99.90;;;;;;4907625;29;20219;-80
2023/01/08 09:39:40;;;;;;;3.83;3.53;;;8.20;99.90;;;;;;4908717;29;20736;-80
2023/01/08 09:42:08;;;;;;;4.70;4.40;;;8.30;99.90;;;;;;4909624;29;20216;-80
2023/01/08 09:44:38;;;;;;;4.93;4.53;;;8.30;99.90;;;;;;4925651;29;20204;-81
2023/01/08 09:47:15;;;;;;;5.20;4.80;;;8.40;99.90;;;;;;4908417;29;20284;-80
2023/01/08 09:49:45;;;;;;;3.87;3.57;;;8.40;99.90;;;;;;4913013;29;20275;-81
2023/01/08 09:52:12;;;;;;;4.90;4.60;;;8.40;99.90;;;;;;4908864;29;20277;-80
2023/01/08 09:54:40;;;;;;;4.27;3.97;;;8.40;99.90;;;;;;4908132;29;20725;-79
2023/01/08 09:57:12;;;;;;;4.30;3.90;;;8.40;99.90;;;;;;4909376;29;20260;-78
2023/01/08 09:59:39;;;;;;;4.10;3.73;;;8.40;99.90;;;;;;4903775;29;20207;-79
2023/01/08 10:02:15;;;;;;;4.20;3.40;;;8.40;99.90;;;;;;4907529;29;20311;-79
2023/01/08 10:04:42;;;;;;;9.17;8.57;;;8.40;99.90;;;;;;4902498;29;20550;-75
2023/01/08 10:07:17;;;;;;;10.30;9.70;;;8.50;99.90;;;;;;4905075;29;20228;-78
2023/01/08 10:09:44;;;;;;;10.50;9.80;;;8.50;99.90;;;;;;4897461;29;20765;-81
2023/01/08 10:12:12;;;;;;;10.13;9.53;;;8.50;99.90;;;;;;4896234;29;20224;-79
2023/01/08 10:14:46;;;;;;;10.20;9.60;;;8.60;99.90;;;;;;4898129;29;20204;-79
2023/01/08 10:17:26;;;;;;;10.07;9.47;;;8.70;99.90;;;;;;4898289;29;20704;-80
2023/01/08 10:19:53;;;;;;;9.73;9.23;;;8.80;99.90;;;;;;4893243;29;20200;-81
2023/01/08 10:22:22;;;;;;;9.30;8.80;;;8.80;99.90;;;;;;4896044;29;20440;-80
2023/01/08 10:24:48;;;;;;;6.27;5.93;;;8.90;99.90;;;;;;4896861;29;20212;-81
2023/01/08 10:27:18;;;;;;;9.13;8.63;;;9.00;99.90;;;;;;4887492;29;20264;-79
2023/01/08 10:29:45;;;;;;;9.57;8.97;;;9.10;99.90;;;;;;4892035;29;20720;-80
2023/01/08 10:32:16;;;;;;;9.47;8.90;;;9.10;99.90;;;;;;4905604;29;20611;-77
2023/01/08 10:34:47;;;;;;;10.40;9.70;;;9.20;99.90;;;;;;4883309;29;20261;-77
2023/01/08 10:37:17;;;;;;;9.33;8.83;;;9.30;99.90;;;;;;4882213;29;20205;-80
2023/01/08 10:39:47;;;;;;;9.13;8.63;;;9.30;99.90;;;;;;4901675;29;20793;-77
2023/01/08 10:42:19;;;;;;;8.80;8.30;;;9.40;99.90;;;;;;4894665;29;20312;-79
2023/01/08 10:44:56;;;;;;;9.03;8.53;;;9.40;99.90;;;;;;4905954;29;20253;-80
2023/01/08 10:47:31;;;;;;;12.17;11.50;;;9.50;99.90;;;;;;4905009;29;20221;-79
2023/01/08 10:49:59;;;;;;;8.97;8.47;;;9.60;99.90;;;;;;4893682;29;20743;-79
2023/01/08 10:52:30;;;;;;;9.30;8.80;;;9.60;99.90;;;;;;4895070;29;20216;-79
2023/01/08 10:54:57;;;;;;;9.40;8.90;;;9.70;99.90;;;;;;4907232;29;20208;-80
2023/01/08 10:57:26;;;;;;;9.50;9.00;;;9.80;99.90;;;;;;4886394;29;20756;-80
2023/01/08 10:59:54;;;;;;;9.57;9.00;;;9.80;99.90;;;;;;4884062;29;20207;-80
2023/01/08 11:02:30;;;;;;;9.50;9.00;;;9.90;99.90;;;;;;4888100;29;20264;-82
2023/01/08 11:04:59;;;;;;;8.60;8.10;;;10.00;99.90;;;;;;4908035;29;20209;-79
2023/01/08 11:07:27;;;;;;;8.80;8.30;;;10.00;99.90;;;;;;4906933;29;20210;-79
2023/01/08 11:09:55;;;;;;;10.30;9.73;;;10.10;99.90;;;;;;4893823;29;20261;-80
2023/01/08 11:12:37;;;;;;;9.60;9.00;;;10.20;99.90;;;;;;4905819;29;20311;-80
2023/01/08 11:15:25;;;;;;;10.50;9.90;;;10.30;99.90;;;;;;4887901;29;20214;-80
2023/01/08 11:17:54;;;;;;;2.60;2.40;;;10.40;99.90;;;;;;4900955;29;20201;-82
2023/01/08 11:20:27;;;;;;;9.30;8.77;;;10.40;99.90;;;;;;4912401;29;20254;-79
2023/01/08 11:23:04;;;;;;;7.80;7.20;;;10.50;99.90;;;;;;4906601;29;20189;-80
2023/01/08 11:25:31;;;;;;;7.80;7.10;;;10.50;99.90;;;;;;4902254;29;20217;-81
2023/01/08 11:28:01;;;;;;;5.07;4.50;;;10.50;99.90;;;;;;4894829;29;20292;-81
2023/01/08 11:30:31;;;;;;;7.67;7.17;;;10.50;99.90;;;;;;4891277;29;20208;-79
2023/01/08 11:33:04;;;;;;;4.07;3.67;;;10.50;99.90;;;;;;4899019;29;20232;-78
2023/01/08 11:35:36;;;;;;;5.60;5.10;;;10.40;99.90;;;;;;4910427;29;20288;-80
2023/01/08 11:38:05;;;;;;;4.73;4.33;;;10.50;99.90;;;;;;4901766;29;20218;-79
2023/01/08 11:40:39;;;;;;;3.03;2.83;;;10.50;99.90;;;;;;4899980;29;20717;-79
2023/01/08 11:43:24;;;;;;;10.50;9.90;;;10.50;99.90;;;;;;4904827;29;20269;-77
2023/01/08 11:46:03;;;;;;;11.00;10.40;;;10.60;99.90;;;;;;4912519;29;20269;-79
2023/01/08 11:48:50;;;;;;;10.50;9.90;;;10.70;99.90;;;;;;4897316;29;20217;-79
2023/01/08 11:51:40;;;;;;;9.37;8.87;;;10.80;99.90;;;;;;4906121;29;20664;-80
2023/01/08 11:54:21;;;;;;;8.87;8.37;;;10.90;99.90;;;;;;4913575;29;20227;-79
2023/01/08 11:57:04;;;;;;;8.87;8.30;;;11.00;99.90;;;;;;4907059;29;20202;-78
2023/01/08 11:59:42;;;;;;;8.80;8.30;;;11.00;99.90;;;;;;4906304;29;20352;-79
2023/01/08 12:02:20;;;;;;;8.80;8.30;;;11.00;99.90;;;;;;4905555;29;20726;-80
2023/01/08 12:05:08;;;;;;;4.07;3.77;;;11.10;99.90;;;;;;4918083;29;20204;-80
2023/01/08 12:07:48;;;;;;;3.17;3.03;;;11.20;99.90;;;;;;4899933;29;20259;-81
2023/01/08 12:10:24;;;;;;;3.73;3.53;;;11.20;99.90;;;;;;4904538;29;20226;-77
2023/01/08 12:13:05;;;;;;;5.80;5.40;;;11.30;99.90;;;;;;4910063;29;20235;-77
2023/01/08 12:15:44;;;;;;;4.83;4.53;;;11.30;99.90;;;;;;4908020;29;20211;-82
2023/01/08 12:18:35;;;;;;;2.40;2.27;;;11.30;99.90;;;;;;4909081;29;20633;-81
2023/01/08 12:21:11;;;;;;;2.43;2.27;;;11.30;99.90;;;;;;4914983;29;20290;-81
2023/01/08 12:24:00;;;;;;;2.50;2.40;;;11.30;99.90;;;;;;4907886;29;20194;-79
2023/01/08 12:26:35;;;;;;;4.80;4.60;;;11.30;99.90;;;;;;4911350;29;20631;-79
2023/01/08 12:29:18;;;;;;;7.77;7.27;;;11.30;99.90;;;;;;4908478;29;20220;-79
2023/01/08 12:31:59;;;;;;;10.07;9.47;;;11.30;99.90;;;;;;4900828;29;20231;-80
2023/01/08 12:34:34;;;;;;;9.87;9.30;;;11.30;99.90;;;;;;4910715;29;20213;-80
2023/01/08 12:37:07;;;;;;;10.20;9.60;;;11.20;99.90;;;;;;4909712;29;20210;-80
2023/01/08 12:39:45;;;;;;;10.40;9.80;;;11.20;99.90;;;;;;4903167;29;20331;-79
2023/01/08 12:42:16;;;;;;;10.40;9.80;;;11.20;99.90;;;;;;4907005;29;20263;-76
2023/01/08 12:44:45;;;;;;;10.20;9.60;;;11.20;99.90;;;;;;4907797;29;20200;-78
2023/01/08 12:47:20;;;;;;;9.90;9.30;;;11.10;99.90;;;;;;4883098;29;20231;-78
2023/01/08 12:49:52;;;;;;;9.90;9.40;;;11.10;99.90;;;;;;4883041;29;20240;-78
2023/01/08 12:52:25;;;;;;;9.90;9.40;;;11.00;99.90;;;;;;4920493;29;20230;-81
2023/01/08 12:54:58;;;;;;;9.73;9.23;;;10.90;99.90;;;;;;4910070;29;20223;-79
2023/01/08 12:57:30;;;;;;;10.00;9.40;;;10.80;99.90;;;;;;4908845;29;20206;-78
2023/01/08 13:00:04;;;;;;;9.70;9.20;;;10.70;99.90;;;;;;4910117;29;20267;-78
2023/01/08 13:02:36;;;;;;;9.50;9.00;;;10.70;99.90;;;;;;4900021;29;20246;-79
2023/01/08 13:05:12;;;;;;;9.50;8.90;;;10.70;99.90;;;;;;4908855;29;20666;-79
2023/01/08 13:07:45;;;;;;;9.97;9.37;;;10.70;99.90;;;;;;4903705;29;20264;-80
2023/01/08 13:10:23;;;;;;;9.43;8.93;;;10.60;99.90;;;;;;4907996;29;20244;-78
2023/01/08 13:12:53;;;;;;;9.47;8.97;;;10.60;99.90;;;;;;4902610;29;20266;-79
2023/01/08 13:15:22;;;;;;;9.67;9.07;;;10.60;99.90;;;;;;4909733;29;20225;-78
2023/01/08 13:17:50;;;;;;;9.87;9.27;;;10.50;99.90;;;;;;4906814;29;20634;-82
2023/01/08 13:20:22;;;;;;;9.80;9.20;;;10.50;99.90;;;;;;4902407;29;20211;-81
2023/01/08 13:22:54;;;;;;;9.13;8.53;;;10.50;99.90;;;;;;4887325;29;20215;-79
2023/01/08 13:25:30;;;;;;;8.60;8.10;;;10.40;99.90;;;;;;4899513;29;20208;-80
2023/01/08 13:27:58;;;;;;;9.20;8.60;;;10.40;99.90;;;;;;4904583;29;20263;-80
2023/01/08 13:30:39;;;;;;;8.97;8.37;;;10.40;99.90;;;;;;4908046;29;20262;-80
2023/01/08 13:33:35;;;;;;;8.70;8.20;;;10.40;99.90;;;;;;4914472;29;20210;-80
2023/01/08 13:36:22;;;;;;;9.30;8.80;;;10.40;99.90;;;;;;4905757;29;20209;-80
2023/01/08 13:39:06;;;;;;;9.00;8.40;;;10.50;99.90;;;;;;4898059;29;20684;-79
2023/01/08 13:41:34;;;;;;;8.40;7.90;;;10.50;99.90;;;;;;4895812;29;20220;-80
2023/01/08 13:44:05;;;;;;;8.80;8.30;;;10.50;99.90;;;;;;4911227;29;20210;-81
2023/01/08 13:46:33;;;;;;;8.50;8.00;;;10.50;99.90;;;;;;4894891;29;20198;-81
2023/01/08 13:49:03;;;;;;;8.60;8.10;;;10.60;99.90;;;;;;4910901;29;20683;-78
2023/01/08 13:51:42;;;;;;;8.33;7.93;;;10.60;99.90;;;;;;4907649;29;20233;-78
2023/01/08 13:54:25;;;;;;;8.60;8.10;;;10.70;99.90;;;;;;4895354;29;20221;-80
2023/01/08 13:57:01;;;;;;;8.77;8.27;;;10.80;99.90;;;;;;4895198;29;20296;-80
2023/01/08 13:59:35;;;;;;;8.80;8.30;;;10.90;99.90;;;;;;4897172;29;20690;-80
2023/01/08 14:02:03;;;;;;;8.50;8.00;;;11.10;99.90;;;;;;4897538;29;20235;-81
2023/01/08 14:04:30;;;;;;;8.80;8.20;;;11.20;99.90;;;;;;4895939;29;20198;-78
2023/01/08 14:07:12;;;;;;;8.47;7.97;;;11.20;99.90;;;;;;4896480;29;20234;-82
2023/01/08 14:09:40;;;;;;;8.60;8.10;;;11.20;99.90;;;;;;4894875;29;20327;-79
2023/01/08 14:12:13;;;;;;;8.30;7.80;;;11.20;99.90;;;;;;4896538;29;20277;-79
2023/01/08 14:14:47;;;;;;;8.80;8.20;;;11.10;99.90;;;;;;4907491;29;20223;-80
2023/01/08 14:17:16;;;;;;;8.60;8.00;;;11.00;99.90;;;;;;4909383;29;20243;-80
2023/01/08 14:19:44;;;;;;;8.30;7.80;;;11.00;99.90;;;;;;4903851;29;20669;-82
2023/01/08 14:22:18;;;;;;;8.23;7.73;;;10.90;99.90;;;;;;4900291;29;20708;-80
2023/01/08 14:24:52;;;;;;;8.40;7.90;;;10.90;99.90;;;;;;4900780;29;20731;-81
2023/01/08 14:27:21;;;;;;;8.50;8.00;;;10.80;99.90;;;;;;4906846;29;20211;-81
2023/01/08 14:29:48;;;;;;;8.03;7.53;;;10.80;99.90;;;;;;4907242;29;20633;-81
2023/01/08 14:32:20;;;;;;;8.40;7.90;;;10.70;99.90;;;;;;4909529;29;20270;-81
2023/01/08 14:34:48;;;;;;;8.40;7.90;;;10.70;99.90;;;;;;4907265;29;20666;-78
2023/01/08 14:37:17;;;;;;;8.17;7.77;;;10.60;99.90;;;;;;4897479;29;20743;-80
2023/01/08 14:39:47;;;;;;;8.00;7.60;;;10.60;99.90;;;;;;4912510;29;20211;-79
2023/01/08 14:45:06;;;;;;;7.90;7.50;;;10.50;99.90;;;;;;4905754;29;20217;-82
2023/01/08 14:47:37;;;;;;;7.90;7.40;;;10.50;99.90;;;;;;4908934;29;20195;-82
2023/01/08 14:50:05;;;;;;;8.40;7.90;;;10.50;99.90;;;;;;4896743;29;20459;-84
2023/01/08 14:52:32;;;;;;;8.20;7.70;;;10.50;99.90;;;;;;4900345;29;20221;-80
2023/01/08 14:55:03;;;;;;;8.40;7.90;;;10.40;99.90;;;;;;4907343;29;20228;-85
2023/01/08 14:57:34;;;;;;;8.37;7.77;;;10.40;99.90;;;;;;4895000;29;20209;-84
2023/01/08 15:00:02;;;;;;;8.73;8.20;;;10.30;99.90;;;;;;4897341;29;20209;-80
2023/01/08 15:02:31;;;;;;;8.73;8.13;;;10.20;99.90;;;;;;4916180;29;20228;-80
2023/01/08 15:05:04;;;;;;;9.10;8.60;;;10.20;99.90;;;;;;4902059;29;20282;-81
2023/01/08 15:07:31;;;;;;;8.90;8.40;;;10.10;99.90;;;;;;4908700;29;20196;-79
2023/01/08 15:10:01;;;;;;;9.00;8.50;;;10.10;99.90;;;;;;4907211;29;20674;-80
2023/01/08 15:12:31;;;;;;;9.40;8.80;;;10.10;99.90;;;;;;4902277;29;20232;-78
2023/01/08 15:15:09;;;;;;;9.27;8.70;;;10.00;99.90;;;;;;4898578;29;20229;-81
2023/01/08 15:17:40;;;;;;;9.33;8.73;;;10.00;99.90;;;;;;4901638;29;20196;-81
2023/01/08 15:20:17;;;;;;;9.10;8.60;;;10.00;99.90;;;;;;4903421;29;20212;-81
2023/01/08 15:22:45;;;;;;;9.13;8.63;;;9.90;99.90;;;;;;4907880;29;20225;-80
2023/01/08 15:25:21;;;;;;;9.60;9.00;;;9.90;99.90;;;;;;4895911;29;20206;-80
2023/01/08 15:27:53;;;;;;;9.40;8.90;;;9.80;99.90;;;;;;4898604;29;20256;-82
2023/01/08 15:30:26;;;;;;;9.70;9.10;;;9.70;99.90;;;;;;4904964;29;20217;-82
2023/01/08 15:33:05;;;;;;;9.47;8.93;;;9.60;99.90;;;;;;4911467;29;20205;-81
2023/01/08 15:35:32;;;;;;;9.70;9.10;;;9.60;99.90;;;;;;4903496;29;20701;-81
2023/01/08 15:38:00;;;;;;;9.70;9.10;;;9.60;99.90;;;;;;4910293;29;20208;-80
2023/01/08 15:40:28;;;;;;;9.67;9.07;;;9.50;99.90;;;;;;4908413;29;20211;-79
2023/01/08 15:45:46;;;;;;;9.60;9.00;;;9.40;99.90;;;;;;4887735;29;20212;-79
2023/01/08 15:48:25;;;;;;;9.57;8.97;;;9.40;99.90;;;;;;4899779;29;20260;-79
2023/01/08 15:50:53;;;;;;;9.73;9.10;;;9.40;99.90;;;;;;4903437;29;20228;-79
2023/01/08 15:53:22;;;;;;;10.07;9.47;;;9.40;99.90;;;;;;4910219;29;20208;-78
2023/01/08 15:55:50;;;;;;;10.40;9.70;;;9.30;99.90;;;;;;4909241;29;20628;-78
2023/01/08 15:58:18;;;;;;;10.53;9.83;;;9.20;99.90;;;;;;4909513;29;20204;-79
2023/01/08 16:03:36;;;;;;;10.77;9.97;;;9.10;99.90;;;;;;4904307;29;20668;-80
2023/01/08 16:06:05;;;;;;;10.50;9.70;;;9.00;99.90;;;;;;4898544;29;20205;-79